KOQT

Oak Ridge Airport

Tennessee, USA
METAR KOQT 181253Z AUTO 00000KT 10SM CLR M01/M01 A3020 RMK AO2 SLP238 I1000 T10061011
Observed Flight Rules
Dec-18 @ 12:53 UTC (44 minutes ago) Visual Flight Rules
Visibility Clouds
10 miles
  • Clear skies
Temperatures Readings
Current -1°C / 30°F
Dewpoint -1°C / 30°F
Humidity 100%
Altimeter 30.2" Hg
Pressure 1023.8 hPa
Elevation 277
METAR KOQT 181253Z AUTO 00000KT 10SM CLR M01/M01 A3020 RMK AO2 SLP238 I1000 T10061011
Observed Flight Rules
Dec-18 @ 12:53 UTC
(44 minutes ago)
VFR
Clouds
  • Clear skies
Temperature Dewpoint
-1°C / 30°F -1°C / 30°F
Humidity Altimeter Pressure
100% 30.2" Hg 1023.8 hPa